Prairie Du Chien, WI

1:16 PM CDT on May 25, 2015 (GMT -0500)
Prairie Du Chien Municipal | | Change Station
CLOSE
Current Station
Airport
Location: Prairie Du Chien,
Elevation: 659 ft
Nearby Weather Stations

Elev 659 ft 43.02 °N, 91.12 °W | Updated 21 minutes ago

Mostly Cloudy
Mostly Cloudy
74 °F
Feels Like 74 °F
N
15
Wind Variable Wind from SW
Gusts 18 mph

Today
High -- | Low -- °F
--% Chance of Precip.
Yesterday
High -- | Low -- °F
Precip. -- in
5:32 AM 8:30 PM
Waxing Crescent, 50% visible
Pressure 29.79 in
Visibility 10.0 miles
Clouds Scattered Clouds 2400 ft
Scattered Clouds 3200 ft
Mostly Cloudy 4500 ft
Dew Point 62 °F
Humidity 67%
Rainfall 0.06 in
Snow Depth Not available.
UV 6 out of 12
Pollen 5.50 out of 12
Air Quality Not available.
Flu Activity Sporadic
METAR KPDC 251755Z AUTO 22013G16KT 10SM SCT024 SCT032 BKN045 23/17 A2979 RMK AO2 60001 T02330168 10233 20180

More Conditions Fewer Conditions

Pressure 29.79 in
Visibility 10.0 miles
Clouds Scattered Clouds 2400 ft
Scattered Clouds 3200 ft
Mostly Cloudy 4500 ft
Dew Point 62 °F
Humidity 67%
Rainfall 0.06 in
Snow Depth Not available.
UV 6 out of 12
Pollen 5.50 out of 12
Air Quality Not available.
Flu Activity Sporadic
METAR KPDC 251755Z AUTO 22013G16KT 10SM SCT024 SCT032 BKN045 23/17 A2979 RMK AO2 60001 T02330168 10233 20180

More Conditions Fewer Conditions

10-Day Weather Forecast

Almanac

Astronomy

May. 25, 2015 Rise Set
Actual Time
Civil Twilight
Nautical Twilight
Astronomical Twilight
Moon
Length of Visible Light
Length of Day
Tomorrow will be .
, % of the Moon is Illuminated

Today's Extremes

State Highs State Lows

Community

WunderPhotos

Upload Photos

1,824,077 photos uploaded!

WunderBlogs® & News

Nearby

Air Quality

  Air Quality AQ Index Pollutant
Not available.

Snow Depth

Station Depth Elevation

Earthquake Activity

City Distance Mag. Time & Date
Minimum magnitude displayed is 2.5.

Coastal Water Temperatures

Place Temperature

Stations

Nearby Weather Stations

Station Location Temp. Windchill Dew Point Humidity Wind Precip. Elev Updated Type